ケアンズ の空港の天気 - METARとTAF

ケアンズ国際空港 ( YBCS / CNS ) - オーストラリア クイーンズランド州ケアンズ
飛行場実況気象(Metar)
観測時間01/20 11:30 AEST (01/20 01:30 UTC)
風向・風速東北東 4m/s
視程10km以上
天気現象
少しの雲 雲底高度 910m
気温31℃
湿度59%
気圧1008hPa
METARYBCS 200130Z 06008KT 9999 FEW030 31/22 Q1008
過去の天気等 Google飛行場航空写真 Wunderground天気予報

過去48時間のMETAR

飛行場予報(TAF)
発表時間: 1/20 09:29 AEST (1/19 23:29 UTC)
予報対象時間: 20日10時 AEST ~ 21日10時 AEST
風向・風速不定 3m/s
視程10km以上
少しの雲 雲底高度 760m
20日11時 AEST から
風向・風速北東 6m/s
視程10km以上
少しの雲 雲底高度 850m
20日18時 AEST から
風向・風速不定 3m/s
視程10km以上
少しの雲 雲底高度 670m
全天の4割程度の雲 雲底高度 1,220m
TAF YBCS 192329Z 2000/2024 VRB05KT 9999 FEW025
FM200100 05012KT 9999 FEW028
FM200800 VRB05KT 9999 FEW022 SCT040